Forsaeti Airport


Codes: BIFZ/
Name: Forsaeti Airport
City: Forsaeti
Country: Iceland
Elevation: 32 ft.

Photos at Forsaeti Airport


   Photos courtesy of SpottingLog. You can add your own sightings and photos by signing up for a free trial today.



No photos found.

Weather at Forsaeti Airport


Time (UTC)DescriptionTempratureWindCloud coverageVisibilityPressureHumidity
15-Apr-2024 18:00Few Clouds2°C16 mph, N16%10000m1017hPa44%
15-Apr-2024 21:00Few Clouds0°C13 mph, NW13%10000m1019hPa53%
16-Apr-2024 00:00Clear Sky-1°C13 mph, NW4%10000m1022hPa61%
16-Apr-2024 03:00Clear Sky-1°C11 mph, N0%10000m1023hPa64%
16-Apr-2024 06:00Few Clouds-3°C7 mph, NE14%10000m1024hPa71%
16-Apr-2024 09:00Scattered Clouds-0°C9 mph, NE31%10000m1024hPa55%
16-Apr-2024 12:00Broken Clouds2°C7 mph, NE63%10000m1023hPa44%
16-Apr-2024 15:00Overcast Clouds3°C11 mph, S100%10000m1020hPa54%
16-Apr-2024 18:00Light Rain1°C9 mph, S100%10000m1018hPa75%
16-Apr-2024 21:00Snow0°C11 mph, E100%140m1016hPa98%
17-Apr-2024 00:00Snow-1°C9 mph, NE100%113m1013hPa98%
17-Apr-2024 03:00Light Snow-0°C9 mph, NE100%87m1012hPa98%
17-Apr-2024 06:00Light Snow-0°C9 mph, N100%0m1012hPa98%
17-Apr-2024 09:00Light Rain1°C9 mph, NE100%10000m1013hPa96%
17-Apr-2024 12:00Overcast Clouds2°C4 mph, N100%10000m1014hPa94%
17-Apr-2024 15:00Overcast Clouds4°C7 mph, W95%10000m1015hPa83%
17-Apr-2024 18:00Overcast Clouds4°C4 mph, W98%10000m1015hPa78%
17-Apr-2024 21:00Light Rain2°C4 mph, SW100%10000m1014hPa88%
18-Apr-2024 00:00Light Rain2°C4 mph, SE100%54m1011hPa99%
18-Apr-2024 03:00Snow1°C4 mph, NE100%716m1009hPa99%
18-Apr-2024 06:00Light Snow1°C4 mph, N100%0m1009hPa99%
18-Apr-2024 09:00Overcast Clouds2°C7 mph, NW100%4254m1011hPa97%
18-Apr-2024 12:00Overcast Clouds4°C9 mph, NW100%10000m1013hPa80%
18-Apr-2024 15:00Broken Clouds5°C11 mph, W72%10000m1014hPa78%
18-Apr-2024 18:00Broken Clouds5°C9 mph, W53%10000m1015hPa69%
18-Apr-2024 21:00Broken Clouds2°C7 mph, W66%10000m1016hPa79%
19-Apr-2024 00:00Broken Clouds2°C4 mph, W82%10000m1016hPa82%
19-Apr-2024 03:00Overcast Clouds2°C4 mph, W100%10000m1015hPa82%
19-Apr-2024 06:00Overcast Clouds2°C2 mph, E100%10000m1014hPa81%
19-Apr-2024 09:00Light Snow1°C7 mph, E100%45m1013hPa100%
19-Apr-2024 12:00Snow1°C7 mph, NE100%167m1010hPa100%
19-Apr-2024 15:00Moderate Rain1°C7 mph, E100%794m1008hPa99%
19-Apr-2024 18:00Moderate Rain3°C9 mph, SE100%7122m1007hPa99%
19-Apr-2024 21:00Light Rain4°C2 mph, S100%1164m1005hPa99%
20-Apr-2024 00:00Light Rain4°C2 mph, S100%1094m1004hPa99%
20-Apr-2024 03:00Light Rain4°C9 mph, SW100%9178m1002hPa98%
20-Apr-2024 06:00Light Rain5°C16 mph, SW100%10000m1000hPa92%
20-Apr-2024 09:00Light Rain4°C18 mph, W74%10000m1001hPa76%
20-Apr-2024 12:00Light Rain5°C20 mph, W77%10000m1001hPa81%
20-Apr-2024 15:00Light Snow4°C20 mph, NW60%10000m1004hPa77%